createdAt,value
2018-04-18T00:00:38.253Z,3.33
2018-04-18T00:03:05.950Z,3.50
2018-04-18T00:05:33.574Z,3.10
2018-04-18T00:08:01.250Z,3.40
2018-04-18T00:10:28.901Z,3.30
2018-04-18T00:12:57.291Z,3.33
2018-04-18T00:15:24.990Z,3.50
2018-04-18T00:17:53.307Z,3.42
2018-04-18T00:20:20.987Z,3.30
2018-04-18T00:22:48.690Z,3.47
2018-04-18T00:25:16.395Z,4.20
2018-04-18T00:27:44.084Z,3.73
2018-04-18T00:30:12.549Z,3.25
2018-04-18T00:32:41.838Z,3.40
2018-04-18T00:35:09.524Z,3.42
2018-04-18T00:37:37.217Z,3.70
2018-04-18T00:40:05.663Z,3.30
2018-04-18T00:42:33.721Z,3.47
2018-04-18T00:45:01.382Z,3.85
2018-04-18T00:47:29.033Z,3.28
2018-04-18T00:49:56.689Z,3.53
2018-04-18T00:52:24.393Z,3.25
2018-04-18T00:54:52.090Z,3.40
2018-04-18T00:57:19.972Z,3.30
2018-04-18T00:59:48.512Z,3.45
2018-04-18T01:02:16.161Z,3.70
2018-04-18T01:04:43.811Z,3.70
2018-04-18T01:07:12.231Z,3.30
2018-04-18T01:09:39.895Z,3.70
2018-04-18T01:12:07.581Z,3.90
2018-04-18T01:14:35.221Z,3.62
2018-04-18T01:17:03.923Z,4.10
2018-04-18T01:19:32.367Z,3.30
2018-04-18T01:22:00.824Z,3.73
2018-04-18T01:24:28.538Z,3.25
2018-04-18T01:26:56.237Z,3.37
2018-04-18T01:29:23.897Z,3.45
2018-04-18T01:31:51.513Z,4.00
2018-04-18T01:34:19.217Z,3.42
2018-04-18T01:36:46.904Z,3.62
2018-04-18T01:39:14.575Z,3.60
2018-04-18T01:41:42.276Z,3.90
2018-04-18T01:44:10.006Z,3.70
2018-04-18T01:46:37.634Z,3.50
2018-04-18T01:49:22.544Z,3.90
2018-04-18T01:51:50.189Z,3.50
2018-04-18T01:54:17.986Z,3.53
2018-04-18T01:56:46.199Z,3.53
2018-04-18T01:59:14.626Z,3.70
2018-04-18T02:01:42.978Z,3.60
2018-04-18T02:04:11.397Z,3.83
2018-04-18T02:06:39.057Z,3.53
2018-04-18T02:09:06.735Z,4.00
2018-04-18T02:11:34.425Z,3.65
2018-04-18T02:14:02.130Z,3.60
2018-04-18T02:16:30.539Z,3.67
2018-04-18T02:18:58.223Z,3.50
2018-04-18T02:21:27.395Z,3.70
2018-04-18T02:23:57.485Z,3.80
2018-04-18T02:26:25.960Z,3.60
2018-04-18T02:28:53.621Z,3.90
2018-04-18T02:31:21.248Z,3.90
2018-04-18T02:33:48.914Z,3.67
2018-04-18T02:36:17.527Z,3.80
2018-04-18T02:38:45.226Z,3.60
2018-04-18T02:41:12.883Z,3.80
2018-04-18T02:43:41.368Z,3.60
2018-04-18T02:46:09.781Z,3.55
2018-04-18T02:48:39.141Z,3.85
2018-04-18T02:51:06.829Z,3.42
2018-04-18T02:53:34.498Z,3.73
2018-04-18T02:56:02.170Z,3.70
2018-04-18T02:58:29.814Z,4.03
2018-04-18T03:00:57.902Z,4.07
2018-04-18T03:03:25.577Z,4.20
2018-04-18T03:05:53.227Z,4.10
2018-04-18T03:08:20.899Z,4.40
2018-04-18T03:10:48.636Z,4.40
2018-04-18T03:13:16.323Z,4.62
2018-04-18T03:15:43.963Z,4.53
2018-04-18T03:18:11.620Z,4.55
2018-04-18T03:20:39.286Z,4.80
2018-04-18T03:23:06.960Z,4.45
2018-04-18T03:25:34.650Z,4.25
2018-04-18T03:28:02.654Z,4.37
2018-04-18T03:30:30.894Z,4.35
2018-04-18T03:32:58.592Z,5.00
2018-04-18T03:35:26.227Z,4.47
2018-04-18T03:37:54.090Z,4.50
2018-04-18T03:40:21.781Z,4.80
2018-04-18T03:42:49.423Z,4.70
2018-04-18T03:45:17.056Z,4.85
2018-04-18T03:47:44.787Z,4.20
2018-04-18T03:50:12.564Z,4.50
2018-04-18T03:52:40.190Z,4.57
2018-04-18T03:55:07.838Z,4.55
2018-04-18T03:57:36.317Z,4.40
2018-04-18T04:00:03.988Z,4.50
2018-04-18T04:02:32.408Z,3.97
2018-04-18T04:05:00.117Z,3.97
2018-04-18T04:07:27.785Z,4.00
2018-04-18T04:09:55.515Z,4.30
2018-04-18T04:12:23.222Z,4.00
2018-04-18T04:14:50.942Z,3.37
2018-04-18T04:17:31.128Z,3.67
2018-04-18T04:20:10.577Z,3.67
2018-04-18T04:22:50.444Z,3.92
2018-04-18T04:25:18.893Z,3.37
2018-04-18T04:27:46.577Z,4.12
2018-04-18T04:30:15.063Z,3.80
2018-04-18T04:32:43.532Z,3.58
2018-04-18T04:35:11.184Z,3.83
2018-04-18T04:37:38.865Z,3.62
2018-04-18T04:40:08.164Z,3.50
2018-04-18T04:42:36.020Z,3.80
2018-04-18T04:45:04.634Z,3.87
2018-04-18T04:47:33.077Z,3.97
2018-04-18T04:50:01.191Z,4.18
2018-04-18T04:52:28.830Z,4.05
2018-04-18T04:54:56.898Z,4.07
2018-04-18T04:57:24.620Z,3.85
2018-04-18T04:59:52.896Z,3.63
2018-04-18T05:02:20.594Z,4.10
2018-04-18T05:04:49.105Z,4.00
2018-04-18T05:07:16.860Z,3.58
2018-04-18T05:09:46.040Z,4.10
2018-04-18T05:12:13.701Z,4.60
2018-04-18T05:14:41.375Z,4.30
2018-04-18T05:17:09.811Z,4.20
2018-04-18T05:19:37.509Z,4.50
2018-04-18T05:22:05.270Z,5.15
2018-04-18T05:24:33.750Z,4.65
2018-04-18T05:27:01.388Z,3.95
2018-04-18T05:29:29.076Z,4.47
2018-04-18T05:31:56.736Z,4.60
2018-04-18T05:34:24.419Z,5.00
2018-04-18T05:36:52.033Z,4.90
2018-04-18T05:39:21.030Z,5.12
2018-04-18T05:41:49.456Z,5.50
2018-04-18T05:44:17.102Z,5.28
2018-04-18T05:46:44.781Z,5.43
2018-04-18T05:49:13.341Z,5.13
2018-04-18T05:51:41.742Z,5.65
2018-04-18T05:54:09.379Z,5.35
2018-04-18T05:56:39.155Z,5.80
2018-04-18T05:59:06.816Z,5.45
2018-04-18T06:01:34.516Z,5.45
2018-04-18T06:04:02.384Z,5.93
2018-04-18T06:06:30.093Z,6.07
2018-04-18T06:08:58.647Z,6.00
2018-04-18T06:11:27.085Z,5.70
2018-04-18T06:13:54.761Z,5.97
2018-04-18T06:16:22.392Z,6.32
2018-04-18T06:18:50.808Z,6.30
2018-04-18T06:21:18.446Z,6.90
2018-04-18T06:23:47.069Z,7.05
2018-04-18T06:26:14.745Z,7.05
2018-04-18T06:28:42.379Z,6.77
2018-04-18T06:31:10.044Z,7.12
2018-04-18T06:33:37.757Z,6.85
2018-04-18T06:36:05.366Z,6.90
2018-04-18T06:38:33.027Z,7.07
2018-04-18T06:41:00.682Z,6.95
2018-04-18T06:43:29.417Z,7.00
2018-04-18T06:45:57.083Z,7.82
2018-04-18T06:48:24.701Z,8.00
2018-04-18T06:50:53.080Z,7.70
2018-04-18T06:53:22.205Z,7.90
2018-04-18T06:55:49.922Z,7.40
2018-04-18T06:58:17.566Z,7.40
2018-04-18T07:00:45.246Z,7.90
2018-04-18T07:03:12.924Z,7.55
2018-04-18T07:05:40.581Z,6.95
2018-04-18T07:08:08.177Z,7.57
2018-04-18T07:10:35.825Z,7.20
2018-04-18T07:13:03.501Z,7.15
2018-04-18T07:15:31.117Z,7.37
2018-04-18T07:17:59.808Z,7.37
2018-04-18T07:20:27.477Z,7.50
2018-04-18T07:22:55.123Z,7.60
2018-04-18T07:25:22.806Z,7.50
2018-04-18T07:27:50.458Z,7.12
2018-04-18T07:30:19.171Z,7.15
2018-04-18T07:32:46.867Z,7.15
2018-04-18T07:35:14.656Z,6.90
2018-04-18T07:37:42.317Z,6.93
2018-04-18T07:40:10.600Z,7.22
2018-04-18T07:42:38.275Z,6.65
2018-04-18T07:45:05.926Z,6.50
2018-04-18T07:47:33.588Z,5.62
2018-04-18T07:50:02.147Z,6.30
2018-04-18T07:52:30.449Z,5.70
2018-04-18T07:54:58.105Z,5.68
2018-04-18T07:57:26.481Z,5.15
2018-04-18T07:59:54.090Z,4.70
2018-04-18T08:02:21.731Z,5.03
2018-04-18T08:04:49.472Z,4.90
2018-04-18T08:07:17.146Z,4.67
2018-04-18T08:09:44.805Z,4.40
2018-04-18T08:12:12.666Z,4.22
2018-04-18T08:14:40.321Z,4.12
2018-04-18T08:17:08.409Z,3.87
2018-04-18T08:19:36.981Z,4.03
2018-04-18T08:22:05.174Z,4.30
2018-04-18T08:24:32.840Z,3.30
2018-04-18T08:27:01.312Z,3.80
2018-04-18T08:29:29.775Z,3.63
2018-04-18T08:31:57.511Z,4.10
2018-04-18T08:34:26.037Z,3.25
2018-04-18T08:36:53.697Z,3.78
2018-04-18T08:39:22.172Z,3.77
2018-04-18T08:41:52.594Z,3.50
2018-04-18T08:44:20.982Z,3.78
2018-04-18T08:46:48.633Z,3.65
2018-04-18T08:49:16.830Z,3.70
2018-04-18T08:51:44.530Z,3.67
2018-04-18T08:54:13.783Z,3.60
2018-04-18T08:56:42.021Z,3.93
2018-04-18T08:59:12.214Z,3.50
2018-04-18T09:01:39.865Z,3.85
2018-04-18T09:04:07.587Z,3.85
2018-04-18T09:06:35.280Z,3.80
2018-04-18T09:09:03.506Z,3.80
2018-04-18T09:11:31.194Z,3.62
2018-04-18T09:13:59.650Z,3.67
2018-04-18T09:16:27.344Z,3.45
2018-04-18T09:18:55.796Z,3.12
2018-04-18T09:21:23.478Z,3.47
2018-04-18T09:23:51.356Z,3.35
2018-04-18T09:26:19.952Z,3.53
2018-04-18T09:28:48.188Z,3.30
2018-04-18T09:31:16.683Z,3.27
2018-04-18T09:33:44.373Z,3.27
2018-04-18T09:36:12.000Z,3.25
2018-04-18T09:38:39.668Z,2.97
2018-04-18T09:41:07.380Z,3.08
2018-04-18T09:43:35.319Z,3.08
2018-04-18T09:46:03.041Z,2.65
2018-04-18T09:48:30.720Z,3.20
2018-04-18T09:50:59.260Z,2.75
2018-04-18T09:53:26.957Z,2.95
2018-04-18T09:55:55.373Z,2.70
2018-04-18T09:58:23.109Z,2.83
2018-04-18T10:00:56.524Z,2.83
2018-04-18T10:03:24.245Z,2.85
2018-04-18T10:05:51.909Z,2.58
2018-04-18T10:08:19.546Z,2.50
2018-04-18T10:10:47.220Z,2.60
2018-04-18T10:13:14.863Z,2.70
2018-04-18T10:15:43.270Z,2.70
2018-04-18T10:18:10.929Z,2.58
2018-04-18T10:20:38.585Z,2.55
2018-04-18T10:23:06.280Z,2.37
2018-04-18T10:25:33.931Z,2.75
2018-04-18T10:28:01.590Z,2.40
2018-04-18T10:30:29.258Z,2.40
2018-04-18T10:32:56.931Z,2.40
2018-04-18T10:35:24.581Z,2.60
2018-04-18T10:37:53.403Z,2.67
2018-04-18T10:40:21.058Z,2.40
2018-04-18T10:42:49.538Z,2.40
2018-04-18T10:45:17.207Z,2.40
2018-04-18T10:47:44.913Z,2.80
2018-04-18T10:50:13.341Z,2.40
2018-04-18T10:52:41.024Z,2.50
2018-04-18T10:55:09.839Z,2.75
2018-04-18T10:57:37.511Z,2.60
2018-04-18T11:00:05.192Z,2.67
2018-04-18T11:02:33.035Z,2.10
2018-04-18T11:05:01.517Z,2.90
2018-04-18T11:07:29.177Z,2.17
2018-04-18T11:09:56.854Z,2.50
2018-04-18T11:12:24.603Z,2.42
2018-04-18T11:14:52.959Z,2.50
2018-04-18T11:17:21.382Z,2.45
2018-04-18T11:19:50.769Z,2.27
2018-04-18T11:22:18.415Z,2.50
2018-04-18T11:24:47.400Z,2.45
2018-04-18T11:27:15.060Z,2.37
2018-04-18T11:29:42.713Z,2.40
2018-04-18T11:32:10.355Z,2.35
2018-04-18T11:34:38.045Z,2.45
2018-04-18T11:37:05.754Z,2.20
2018-04-18T11:39:33.605Z,2.00
2018-04-18T11:42:02.363Z,2.20
2018-04-18T11:44:29.985Z,2.12
2018-04-18T11:46:58.423Z,2.20
2018-04-18T11:49:26.098Z,2.05
2018-04-18T11:51:53.790Z,1.92
2018-04-18T11:54:21.434Z,1.98
2018-04-18T11:56:49.831Z,2.00
2018-04-18T11:59:17.501Z,2.00
2018-04-18T12:01:45.181Z,1.80
2018-04-18T12:04:12.842Z,2.10
2018-04-18T12:06:40.503Z,2.10
2018-04-18T12:09:08.179Z,1.87
2018-04-18T12:11:39.634Z,1.95
2018-04-18T12:14:07.299Z,2.00
2018-04-18T12:16:35.233Z,1.62
2018-04-18T12:19:02.907Z,1.60
2018-04-18T12:21:30.584Z,2.00
2018-04-18T12:23:58.738Z,1.80
2018-04-18T12:26:26.513Z,2.00
2018-04-18T12:28:55.011Z,2.20
2018-04-18T12:31:22.651Z,1.60
2018-04-18T12:33:50.385Z,1.77
2018-04-18T12:36:18.118Z,2.17
2018-04-18T12:38:45.798Z,1.73
2018-04-18T12:41:14.352Z,2.03
2018-04-18T12:43:42.074Z,2.05
2018-04-18T12:46:09.633Z,2.03
2018-04-18T12:48:37.924Z,1.90
2018-04-18T12:51:05.511Z,1.60
2018-04-18T12:53:33.912Z,1.83
2018-04-18T12:56:01.575Z,1.70
2018-04-18T12:58:29.175Z,1.98
2018-04-18T13:00:56.805Z,1.90
2018-04-18T13:03:25.164Z,1.70
2018-04-18T13:05:52.747Z,1.75
2018-04-18T13:08:21.147Z,1.55
2018-04-18T13:10:48.815Z,1.83
2018-04-18T13:13:16.406Z,1.50
2018-04-18T13:15:44.048Z,1.58
2018-04-18T13:18:11.701Z,1.83
2018-04-18T13:20:40.073Z,1.50
2018-04-18T13:23:08.500Z,1.85
2018-04-18T13:25:36.120Z,1.23
2018-04-18T13:28:03.779Z,1.70
2018-04-18T13:30:32.252Z,1.80
2018-04-18T13:33:01.397Z,1.70
2018-04-18T13:35:29.052Z,1.60
2018-04-18T13:37:57.434Z,1.63
2018-04-18T13:40:26.152Z,1.50
2018-04-18T13:42:54.455Z,1.42
2018-04-18T13:45:22.072Z,1.40
2018-04-18T13:47:49.726Z,1.40
2018-04-18T13:50:17.381Z,1.60
2018-04-18T13:52:45.036Z,1.50
2018-04-18T13:55:12.703Z,1.40
2018-04-18T13:57:40.528Z,1.50
2018-04-18T14:00:08.144Z,1.47
2018-04-18T14:02:36.535Z,1.65
2018-04-18T14:05:05.226Z,1.48
2018-04-18T14:07:33.657Z,1.20
2018-04-18T14:10:01.296Z,1.30
2018-04-18T14:12:28.964Z,1.47
2018-04-18T14:14:56.670Z,1.40
2018-04-18T14:17:24.339Z,1.40
2018-04-18T14:19:52.241Z,1.30
2018-04-18T14:22:19.823Z,1.10
2018-04-18T14:24:48.230Z,1.40
2018-04-18T14:27:15.886Z,1.30
2018-04-18T14:29:43.513Z,1.48
2018-04-18T14:32:11.241Z,1.48
2018-04-18T14:34:38.871Z,1.42
2018-04-18T14:37:07.304Z,1.42
2018-04-18T14:39:34.958Z,1.37
2018-04-18T14:42:02.608Z,1.30
2018-04-18T14:44:30.245Z,1.30
2018-04-18T14:46:57.870Z,1.30
2018-04-18T14:49:25.504Z,1.30
2018-04-18T14:51:53.150Z,1.30
2018-04-18T14:54:21.550Z,1.58
2018-04-18T14:56:49.198Z,1.30
2018-04-18T14:59:17.597Z,1.60
2018-04-18T15:01:45.227Z,1.42
2018-04-18T15:04:12.882Z,1.40
2018-04-18T15:06:40.516Z,1.30
2018-04-18T15:09:08.172Z,1.30
2018-04-18T15:11:35.768Z,1.25
2018-04-18T15:14:03.383Z,1.33
2018-04-18T15:16:31.761Z,1.30
2018-04-18T15:18:59.423Z,1.30
2018-04-18T15:21:27.143Z,1.30
2018-04-18T15:23:54.740Z,1.40
2018-04-18T15:26:22.370Z,1.20
2018-04-18T15:28:50.008Z,1.40
2018-04-18T15:31:18.412Z,1.30
2018-04-18T15:33:46.036Z,1.42
2018-04-18T15:36:13.679Z,1.20
2018-04-18T15:38:41.304Z,1.50
2018-04-18T15:41:08.915Z,1.50
2018-04-18T15:43:36.558Z,1.40
2018-04-18T15:46:04.346Z,1.50
2018-04-18T15:48:31.953Z,1.60
2018-04-18T15:51:00.360Z,1.33
2018-04-18T15:53:27.975Z,1.52
2018-04-18T15:55:55.596Z,1.52
2018-04-18T15:58:23.223Z,1.60
2018-04-18T16:00:50.921Z,1.42
2018-04-18T16:03:18.553Z,1.50
2018-04-18T16:05:46.276Z,1.70
2018-04-18T16:08:14.123Z,1.70
2018-04-18T16:10:41.772Z,1.40
2018-04-18T16:13:10.137Z,1.70
2018-04-18T16:15:37.751Z,1.80
2018-04-18T16:18:05.707Z,1.70
2018-04-18T16:20:33.469Z,1.60
2018-04-18T16:23:02.843Z,1.60
2018-04-18T16:25:30.497Z,1.58
2018-04-18T16:27:58.117Z,1.70
2018-04-18T16:30:37.749Z,1.70
2018-04-18T16:33:06.131Z,1.70
2018-04-18T16:35:34.610Z,1.87
2018-04-18T16:38:03.296Z,1.83
2018-04-18T16:40:31.019Z,1.67
2018-04-18T16:42:59.259Z,1.65
2018-04-18T16:45:27.655Z,1.90
2018-04-18T16:47:55.294Z,1.58
2018-04-18T16:50:22.961Z,1.98
2018-04-18T16:52:51.781Z,1.75
2018-04-18T16:55:19.447Z,1.70
2018-04-18T16:57:47.120Z,1.90
2018-04-18T17:00:14.788Z,1.65
2018-04-18T17:02:44.127Z,2.33
2018-04-18T17:05:12.210Z,2.55
2018-04-18T17:07:40.375Z,2.08
2018-04-18T17:10:07.987Z,2.58
2018-04-18T17:12:36.497Z,2.47
2018-04-18T17:15:04.125Z,2.42
2018-04-18T17:17:32.959Z,2.17
2018-04-18T17:20:00.832Z,2.15
2018-04-18T17:22:29.050Z,2.40
2018-04-18T17:24:57.359Z,2.30
2018-04-18T17:27:25.078Z,2.40
2018-04-18T17:29:52.724Z,2.40
2018-04-18T17:32:20.344Z,2.30
2018-04-18T17:34:47.999Z,2.50
2018-04-18T17:37:15.804Z,2.15
2018-04-18T17:39:44.351Z,2.45
2018-04-18T17:42:12.074Z,2.30
2018-04-18T17:44:40.123Z,2.20
2018-04-18T17:47:07.768Z,1.90
2018-04-18T17:49:35.446Z,2.03
2018-04-18T17:52:04.088Z,2.10
2018-04-18T17:54:32.102Z,2.28
2018-04-18T17:57:02.893Z,2.00
2018-04-18T17:59:30.986Z,2.10
2018-04-18T18:01:58.691Z,2.03
2018-04-18T18:04:26.311Z,2.20
2018-04-18T18:06:53.929Z,2.20
2018-04-18T18:09:21.563Z,2.50
2018-04-18T18:11:49.192Z,2.33
2018-04-18T18:14:17.605Z,2.67
2018-04-18T18:16:45.701Z,2.43
2018-04-18T18:19:13.371Z,2.40
2018-04-18T18:21:41.025Z,2.55
2018-04-18T18:24:08.633Z,2.50
2018-04-18T18:26:37.068Z,2.47
2018-04-18T18:29:04.760Z,2.55
2018-04-18T18:31:32.368Z,2.47
2018-04-18T18:34:00.051Z,2.53
2018-04-18T18:36:27.687Z,2.60
2018-04-18T18:38:55.284Z,2.65
2018-04-18T18:41:22.947Z,2.70
2018-04-18T18:43:50.558Z,2.67
2018-04-18T18:46:18.182Z,2.90
2018-04-18T18:48:45.778Z,2.83
2018-04-18T18:51:13.388Z,2.70
2018-04-18T18:53:41.927Z,2.72
2018-04-18T18:56:09.564Z,3.12
2018-04-18T18:58:37.161Z,2.83
2018-04-18T19:01:04.819Z,2.90
2018-04-18T19:03:33.227Z,2.58
2018-04-18T19:06:01.110Z,2.87
2018-04-18T19:08:29.490Z,3.00
2018-04-18T19:10:57.141Z,3.12
2018-04-18T19:13:24.878Z,2.75
2018-04-18T19:15:53.297Z,2.95
2018-04-18T19:18:20.998Z,2.87
2018-04-18T19:20:49.414Z,2.70
2018-04-18T19:23:17.820Z,3.00
2018-04-18T19:25:45.455Z,2.90
2018-04-18T19:28:13.133Z,3.15
2018-04-18T19:30:41.834Z,2.75
2018-04-18T19:33:10.917Z,3.25
2018-04-18T19:35:38.615Z,3.17
2018-04-18T19:38:06.303Z,2.90
2018-04-18T19:40:34.174Z,3.37
2018-04-18T19:43:01.827Z,3.00
2018-04-18T19:45:29.463Z,3.33
2018-04-18T19:47:58.837Z,3.13
2018-04-18T19:50:27.544Z,3.05
2018-04-18T19:52:55.171Z,3.35
2018-04-18T19:55:22.931Z,3.15
2018-04-18T19:57:51.370Z,3.25
2018-04-18T20:00:19.026Z,3.10
2018-04-18T20:02:46.648Z,3.20
2018-04-18T20:05:14.370Z,3.40
2018-04-18T20:07:41.973Z,3.25
2018-04-18T20:10:09.646Z,3.08
2018-04-18T20:12:39.043Z,3.15
2018-04-18T20:15:09.245Z,3.40
2018-04-18T20:17:37.638Z,3.70
2018-04-18T20:20:07.153Z,3.40
2018-04-18T20:22:34.898Z,3.30
2018-04-18T20:25:02.547Z,3.20
2018-04-18T20:27:30.597Z,3.58
2018-04-18T20:29:59.103Z,3.50
2018-04-18T20:32:26.760Z,3.63
2018-04-18T20:34:55.408Z,3.50
2018-04-18T20:37:23.130Z,3.87
2018-04-18T20:39:50.780Z,3.67
2018-04-18T20:42:18.429Z,3.65
2018-04-18T20:44:46.069Z,3.75
2018-04-18T20:47:14.448Z,3.92
2018-04-18T20:49:43.680Z,3.72
2018-04-18T20:52:15.251Z,3.95
2018-04-18T20:54:43.557Z,3.87
2018-04-18T20:57:11.181Z,3.75
2018-04-18T20:59:38.867Z,3.58
2018-04-18T21:02:06.525Z,4.15
2018-04-18T21:04:34.175Z,4.05
2018-04-18T21:07:02.240Z,4.20
2018-04-18T21:09:31.000Z,3.72
2018-04-18T21:11:58.693Z,4.22
2018-04-18T21:14:27.735Z,4.55
2018-04-18T21:16:55.353Z,4.37
2018-04-18T21:19:23.719Z,4.37
2018-04-18T21:21:51.425Z,4.10
2018-04-18T21:24:19.104Z,4.40
2018-04-18T21:26:47.002Z,4.00
2018-04-18T21:29:14.679Z,4.47
2018-04-18T21:31:42.295Z,4.68
2018-04-18T21:34:09.970Z,4.20
2018-04-18T21:36:37.646Z,4.57
2018-04-18T21:39:06.043Z,4.12
2018-04-18T21:41:33.782Z,4.60
2018-04-18T21:44:01.436Z,4.37
2018-04-18T21:46:29.831Z,4.40
2018-04-18T21:48:58.269Z,4.40
2018-04-18T21:51:26.800Z,4.40
2018-04-18T21:53:55.191Z,4.12
2018-04-18T21:56:22.851Z,4.32
2018-04-18T21:58:50.512Z,4.22
2018-04-18T22:01:18.183Z,4.80
2018-04-18T22:03:45.834Z,4.53
2018-04-18T22:06:14.103Z,4.47
2018-04-18T22:08:42.325Z,4.57
2018-04-18T22:11:09.974Z,4.30
2018-04-18T22:13:38.409Z,4.25
2018-04-18T22:16:06.088Z,4.82
2018-04-18T22:18:34.280Z,4.70
2018-04-18T22:21:03.029Z,4.50
2018-04-18T22:23:30.708Z,4.97
2018-04-18T22:25:58.772Z,4.60
2018-04-18T22:28:26.941Z,4.90
2018-04-18T22:30:54.614Z,5.00
2018-04-18T22:33:22.282Z,4.70
2018-04-18T22:35:49.924Z,4.45
2018-04-18T22:38:19.135Z,4.90
2018-04-18T22:40:47.427Z,4.82
2018-04-18T22:43:15.080Z,5.00
2018-04-18T22:45:43.955Z,4.82
2018-04-18T22:48:12.595Z,5.18
2018-04-18T22:50:40.370Z,4.78
2018-04-18T22:53:08.041Z,4.82
2018-04-18T22:55:35.646Z,5.32
2018-04-18T22:58:03.963Z,5.10
2018-04-18T23:00:31.581Z,4.63
2018-04-18T23:03:00.006Z,4.80
2018-04-18T23:05:28.020Z,5.00
2018-04-18T23:07:55.693Z,4.82
2018-04-18T23:10:23.364Z,5.47
2018-04-18T23:12:51.708Z,4.80
2018-04-18T23:15:19.670Z,4.87
2018-04-18T23:17:47.466Z,5.18
2018-04-18T23:20:15.123Z,4.93
2018-04-18T23:22:42.779Z,5.03
2018-04-18T23:25:10.473Z,5.20
2018-04-18T23:27:38.817Z,5.10
2018-04-18T23:30:07.199Z,4.90
2018-04-18T23:32:35.803Z,5.00
2018-04-18T23:35:03.451Z,5.10
2018-04-18T23:37:31.183Z,5.35
2018-04-18T23:39:58.785Z,4.57
2018-04-18T23:42:26.430Z,5.18
2018-04-18T23:44:54.804Z,4.87
2018-04-18T23:47:23.391Z,5.37
2018-04-18T23:49:51.338Z,5.00
2018-04-18T23:52:18.995Z,5.00
2018-04-18T23:54:46.654Z,5.00
2018-04-18T23:57:14.333Z,5.07
2018-04-18T23:59:41.987Z,4.80
